Time;durP1;ratioP1;P1;durP2;ratioP2;P2;SDS_P1;SDS_P2;PMS_P1;PMS_P2;Temp;Humidity;BMP_temperature;BMP_pressure;BME280_temperature;BME280_humidity;BME280_pressure;Samples;Min_cycle;Max_cycle;Signal;HPM_P1;HPM_P2
2022/07/08 00:02:29;;;;;;;9.57;1.70;;;15.30;99.90;;;;;;6264796;28;20056;-78
2022/07/08 00:05:31;;;;;;;10.00;1.77;;;15.40;99.90;;;;;;6274106;28;20056;-78
2022/07/08 00:08:41;;;;;;;9.70;1.85;;;15.40;99.90;;;;;;6260423;28;20087;-78
2022/07/08 00:11:48;;;;;;;9.02;1.60;;;15.30;99.90;;;;;;6275123;28;20421;-78
2022/07/08 00:14:53;;;;;;;8.95;1.83;;;15.30;99.90;;;;;;6254182;28;20053;-78
2022/07/08 00:18:09;;;;;;;9.20;1.92;;;15.40;99.90;;;;;;6258676;28;20041;-77
2022/07/08 00:21:30;;;;;;;12.30;1.65;;;15.60;99.90;;;;;;6249106;28;20542;-78
2022/07/08 00:24:32;;;;;;;10.60;2.20;;;15.60;99.90;;;;;;6258319;28;20045;-78
2022/07/08 00:27:34;;;;;;;9.13;2.20;;;15.40;99.90;;;;;;6272255;28;20083;-78
2022/07/08 00:30:36;;;;;;;9.60;1.70;;;15.30;99.90;;;;;;6272568;28;20056;-78
2022/07/08 00:33:39;;;;;;;12.55;2.20;;;15.20;99.90;;;;;;6283787;28;20558;-78
2022/07/08 00:36:41;;;;;;;8.25;1.67;;;15.10;99.90;;;;;;6249183;28;20075;-77
2022/07/08 00:39:43;;;;;;;7.25;1.50;;;15.20;99.90;;;;;;6265206;28;20049;-78
2022/07/08 00:42:48;;;;;;;10.63;1.65;;;15.10;99.90;;;;;;6259926;28;20381;-78
2022/07/08 00:45:50;;;;;;;9.80;1.77;;;15.20;99.90;;;;;;6272067;28;20509;-78
2022/07/08 00:48:53;;;;;;;9.27;1.85;;;15.20;99.90;;;;;;6267851;28;20049;-78
2022/07/08 00:51:57;;;;;;;7.63;1.50;;;15.40;99.90;;;;;;6253085;28;20065;-78
2022/07/08 00:54:59;;;;;;;10.02;1.77;;;15.50;99.90;;;;;;6262499;28;20441;-77
2022/07/08 00:58:01;;;;;;;8.20;2.00;;;15.40;99.90;;;;;;6267068;28;20038;-77
2022/07/08 01:01:03;;;;;;;9.63;1.77;;;15.20;99.90;;;;;;6264920;28;20054;-77
2022/07/08 01:04:07;;;;;;;7.93;1.80;;;15.20;99.90;;;;;;6286304;28;20049;-77
2022/07/08 01:07:09;;;;;;;9.57;1.63;;;15.30;99.90;;;;;;6270729;28;20049;-77
2022/07/08 01:10:11;;;;;;;8.98;1.70;;;15.40;99.90;;;;;;6262490;28;20053;-75
2022/07/08 01:13:14;;;;;;;10.00;1.70;;;15.50;99.90;;;;;;6256512;28;20049;-77
2022/07/08 01:16:16;;;;;;;12.35;1.77;;;15.80;99.90;;;;;;6257373;28;20211;-77
2022/07/08 01:19:19;;;;;;;11.43;1.55;;;15.90;99.90;;;;;;6264172;28;20045;-77
2022/07/08 01:22:22;;;;;;;;;;;15.90;99.90;;;;;;6270428;28;20198;-77
2022/07/08 01:25:25;;;;;;;9.00;1.70;;;15.70;99.90;;;;;;6257358;28;19924;-77
2022/07/08 01:28:28;;;;;;;10.85;2.08;;;15.60;99.90;;;;;;6257639;28;20085;-77
2022/07/08 01:31:30;;;;;;;9.40;1.63;;;15.60;99.90;;;;;;6271919;28;20057;-77
2022/07/08 01:34:32;;;;;;;8.85;1.70;;;15.50;99.90;;;;;;6287015;28;20049;-77
2022/07/08 01:37:35;;;;;;;6.90;1.33;;;15.50;99.90;;;;;;6272402;28;20052;-77
2022/07/08 01:40:37;;;;;;;;;;;15.40;99.90;;;;;;6269180;28;20057;-78
2022/07/08 01:43:41;;;;;;;11.93;1.90;;;15.50;99.90;;;;;;6267821;28;19928;-77
2022/07/08 01:46:43;;;;;;;11.75;2.28;;;15.50;99.90;;;;;;6247781;28;20504;-77
2022/07/08 01:49:45;;;;;;;10.55;1.95;;;15.70;99.90;;;;;;6260628;28;20052;-77
2022/07/08 01:52:48;;;;;;;7.88;1.40;;;15.80;99.90;;;;;;6272653;28;20494;-77
2022/07/08 01:55:50;;;;;;;9.50;1.65;;;15.90;99.90;;;;;;6271205;28;20060;-77
2022/07/08 01:58:52;;;;;;;9.93;1.60;;;15.90;99.90;;;;;;6270342;28;20052;-77
2022/07/08 02:01:54;;;;;;;7.32;1.80;;;15.80;99.90;;;;;;6259357;28;20486;-77
2022/07/08 02:04:56;;;;;;;7.82;1.70;;;15.70;99.90;;;;;;6272216;28;20493;-77
2022/07/08 02:08:00;;;;;;;8.75;1.52;;;15.60;99.90;;;;;;6249112;28;20053;-77
2022/07/08 02:14:21;;;;;;;9.95;2.35;;;15.50;99.90;;;;;;6266895;28;20045;-77
2022/07/08 02:17:24;;;;;;;9.38;2.00;;;15.50;99.90;;;;;;6270133;28;20053;-77
2022/07/08 02:20:26;;;;;;;7.35;1.67;;;15.70;99.90;;;;;;6269142;28;20079;-77
2022/07/08 02:23:29;;;;;;;7.95;1.63;;;15.70;99.90;;;;;;6267912;28;20060;-77
2022/07/08 02:26:31;;;;;;;8.52;1.58;;;15.80;99.90;;;;;;6296838;28;20045;-77
2022/07/08 02:29:33;;;;;;;10.15;1.95;;;15.70;99.90;;;;;;6276926;28;20045;-77
2022/07/08 02:32:35;;;;;;;9.30;1.67;;;15.60;99.90;;;;;;6269455;28;20067;-77
2022/07/08 02:35:37;;;;;;;10.70;1.67;;;15.60;99.90;;;;;;6262591;28;20471;-77
2022/07/08 02:38:40;;;;;;;7.15;1.90;;;15.70;99.90;;;;;;6269898;28;20044;-77
2022/07/08 02:41:43;;;;;;;12.30;1.92;;;15.50;99.90;;;;;;6252085;28;20483;-77
2022/07/08 02:44:45;;;;;;;8.17;1.50;;;15.30;99.90;;;;;;6274530;28;20398;-77
2022/07/08 02:47:46;;;;;;;7.63;1.60;;;15.20;99.90;;;;;;6269952;28;20064;-77
2022/07/08 02:50:48;;;;;;;8.77;2.13;;;15.30;99.90;;;;;;6264435;28;20049;-77
2022/07/08 02:53:52;;;;;;;11.85;1.85;;;15.40;99.90;;;;;;6250704;28;20052;-77
2022/07/08 02:56:54;;;;;;;10.95;1.85;;;15.30;99.90;;;;;;6267363;28;20136;-77
2022/07/08 02:59:55;;;;;;;9.57;1.67;;;15.30;99.90;;;;;;6266421;28;20498;-77
2022/07/08 03:02:57;;;;;;;9.63;1.70;;;15.00;99.90;;;;;;6267322;28;20486;-77
2022/07/08 03:05:59;;;;;;;12.70;2.55;;;14.90;99.90;;;;;;6269316;28;20406;-77
2022/07/08 03:09:03;;;;;;;9.80;1.90;;;14.70;99.90;;;;;;6263754;28;20045;-77
2022/07/08 03:12:05;;;;;;;;;;;14.50;99.90;;;;;;6266399;28;20412;-77
2022/07/08 03:15:08;;;;;;;15.13;2.55;;;14.50;99.90;;;;;;6271548;28;20285;-77
2022/07/08 03:18:10;;;;;;;13.15;2.15;;;14.60;99.90;;;;;;6272573;28;20091;-77
2022/07/08 03:21:12;;;;;;;11.43;1.98;;;14.70;99.90;;;;;;6273458;28;20064;-77
2022/07/08 03:24:15;;;;;;;11.60;2.13;;;14.70;99.90;;;;;;6258954;28;20076;-77
2022/07/08 03:27:17;;;;;;;9.27;1.70;;;14.60;99.90;;;;;;6258825;28;20052;-77
2022/07/08 03:30:19;;;;;;;10.68;1.77;;;14.50;99.90;;;;;;6275681;28;20492;-77
2022/07/08 03:33:21;;;;;;;12.15;2.00;;;14.50;99.90;;;;;;6251829;28;20042;-77
2022/07/08 03:36:23;;;;;;;8.63;1.63;;;14.60;99.90;;;;;;6264968;28;20088;-78
2022/07/08 03:39:27;;;;;;;10.63;1.90;;;14.60;99.90;;;;;;6274724;28;20061;-77
2022/07/08 03:42:29;;;;;;;7.78;1.35;;;14.70;99.90;;;;;;6265739;28;20053;-77
2022/07/08 03:45:31;;;;;;;7.55;1.70;;;14.70;99.90;;;;;;6275168;28;20575;-77
2022/07/08 03:48:33;;;;;;;10.93;1.88;;;14.90;99.90;;;;;;6264288;28;20056;-77
2022/07/08 03:51:35;;;;;;;9.07;1.67;;;14.90;99.90;;;;;;6265571;28;20048;-77
2022/07/08 03:54:38;;;;;;;8.93;1.55;;;14.80;99.90;;;;;;6273407;28;20409;-77
2022/07/08 03:57:40;;;;;;;5.90;1.48;;;15.00;99.90;;;;;;6273104;28;20044;-77
2022/07/08 04:00:42;;;;;;;10.68;1.90;;;15.20;99.90;;;;;;6277062;28;20401;-77
2022/07/08 04:03:44;;;;;;;8.77;1.73;;;15.10;99.90;;;;;;6262584;28;20430;-77
2022/07/08 04:06:46;;;;;;;11.50;1.98;;;15.10;99.90;;;;;;6265838;28;20084;-77
2022/07/08 04:09:50;;;;;;;10.77;2.67;;;14.90;99.90;;;;;;6270039;28;20056;-77
2022/07/08 04:12:52;;;;;;;6.35;1.52;;;14.80;99.90;;;;;;6263708;28;20498;-77
2022/07/08 04:15:54;;;;;;;12.57;2.05;;;14.70;99.90;;;;;;6263440;28;20040;-76
2022/07/08 04:18:56;;;;;;;8.38;1.90;;;14.90;99.90;;;;;;6265733;28;20068;-77
2022/07/08 04:21:58;;;;;;;12.90;1.65;;;15.10;99.90;;;;;;6271932;28;20041;-77
2022/07/08 04:25:01;;;;;;;9.65;2.20;;;15.10;99.90;;;;;;6274661;28;20056;-77
2022/07/08 04:28:03;;;;;;;9.75;1.90;;;15.20;99.90;;;;;;6270325;28;20509;-77
2022/07/08 04:31:05;;;;;;;10.93;1.95;;;15.30;99.90;;;;;;6273837;28;20055;-77
2022/07/08 04:34:07;;;;;;;10.65;1.83;;;15.20;99.90;;;;;;6271477;28;20391;-77
2022/07/08 04:37:09;;;;;;;10.73;1.92;;;15.00;99.90;;;;;;6281826;28;20059;-77
2022/07/08 04:40:13;;;;;;;9.73;1.75;;;15.00;99.90;;;;;;6258344;28;20054;-77
2022/07/08 04:43:15;;;;;;;11.52;2.28;;;14.90;99.90;;;;;;6279234;28;20049;-77
2022/07/08 04:46:17;;;;;;;9.60;1.92;;;14.90;99.90;;;;;;6272909;28;20502;-77
2022/07/08 04:49:19;;;;;;;15.20;1.80;;;15.00;99.90;;;;;;6272621;28;20052;-76
2022/07/08 04:52:21;;;;;;;6.20;1.30;;;15.10;99.90;;;;;;6262033;28;20057;-77
2022/07/08 04:55:31;;;;;;;8.65;1.50;;;15.10;99.90;;;;;;6273714;28;20482;-75
2022/07/08 04:58:32;;;;;;;11.88;1.98;;;15.20;99.90;;;;;;6270591;28;20049;-77
2022/07/08 05:01:34;;;;;;;10.52;1.50;;;15.30;99.90;;;;;;6298849;28;20044;-77
2022/07/08 05:04:36;;;;;;;9.98;1.88;;;15.50;99.90;;;;;;6291831;28;20527;-77
2022/07/08 05:07:38;;;;;;;9.52;2.00;;;15.50;99.90;;;;;;6272917;28;20056;-77
2022/07/08 05:10:41;;;;;;;8.48;1.75;;;15.50;99.90;;;;;;6270099;28;20405;-77
2022/07/08 05:13:43;;;;;;;9.90;1.80;;;15.50;99.90;;;;;;6293917;28;20049;-77
2022/07/08 05:16:45;;;;;;;7.93;1.38;;;15.80;99.90;;;;;;6274922;28;20049;-77
2022/07/08 05:19:48;;;;;;;7.63;2.10;;;15.80;99.90;;;;;;6271444;28;20405;-77
2022/07/08 05:22:50;;;;;;;9.40;1.60;;;16.20;99.90;;;;;;6264779;28;20049;-77
2022/07/08 05:25:53;;;;;;;8.05;1.80;;;16.30;99.90;;;;;;6257498;28;20436;-77
2022/07/08 05:28:55;;;;;;;15.45;2.30;;;16.20;99.90;;;;;;6269072;28;20057;-77
2022/07/08 05:31:57;;;;;;;10.23;2.10;;;16.20;99.90;;;;;;6250354;28;20434;-77
2022/07/08 05:35:00;;;;;;;14.88;2.85;;;16.10;99.90;;;;;;6272387;28;20393;-77
2022/07/08 05:38:02;;;;;;;12.10;2.03;;;15.90;99.90;;;;;;6268328;28;20578;-77
2022/07/08 05:41:05;;;;;;;10.40;2.00;;;15.90;99.90;;;;;;6252173;28;20071;-75
2022/07/08 05:44:07;;;;;;;;;;;16.30;99.90;;;;;;6261681;28;20045;-76
2022/07/08 05:47:09;;;;;;;1746.28;102.32;;;16.40;99.90;;;;;;6260084;28;19928;-77
2022/07/08 05:50:11;;;;;;;69.22;10.93;;;16.60;99.90;;;;;;6280062;28;20053;-77
2022/07/08 05:53:15;;;;;;;13.23;2.38;;;17.70;99.90;;;;;;6265810;28;20056;-80
2022/07/08 05:56:19;;;;;;;10.25;2.08;;;18.40;99.90;;;;;;6268597;28;20459;-82
2022/07/08 05:59:21;;;;;;;7.60;1.48;;;18.60;99.90;;;;;;6257801;28;20061;-79
2022/07/08 06:02:23;;;;;;;11.27;1.90;;;18.70;99.90;;;;;;6287624;28;20046;-86
2022/07/08 06:05:24;;;;;;;9.18;1.73;;;19.00;99.90;;;;;;6258368;28;20059;-86
2022/07/08 06:08:26;;;;;;;13.45;1.67;;;19.60;99.90;;;;;;6270043;28;20483;-84
2022/07/08 06:11:30;;;;;;;8.98;1.60;;;20.30;99.90;;;;;;6261912;28;20490;-84
2022/07/08 06:14:32;;;;;;;10.35;2.13;;;20.60;99.90;;;;;;6270819;28;20059;-83
2022/07/08 06:17:37;;;;;;;8.95;1.80;;;20.70;99.90;;;;;;6260695;28;20041;-82
2022/07/08 06:20:39;;;;;;;6.35;1.38;;;20.40;99.90;;;;;;6271143;28;20056;-83
2022/07/08 06:23:41;;;;;;;9.82;1.70;;;20.30;99.90;;;;;;6269629;28;20380;-82
2022/07/08 06:26:44;;;;;;;8.95;1.77;;;20.60;99.90;;;;;;6260340;28;20049;-81
2022/07/08 06:29:46;;;;;;;6.75;2.08;;;20.90;99.90;;;;;;6257119;28;20563;-83
2022/07/08 06:32:48;;;;;;;9.38;1.80;;;21.10;99.90;;;;;;6248011;28;20053;-82
2022/07/08 06:35:50;;;;;;;7.65;1.88;;;21.10;99.90;;;;;;6245849;28;20056;-83
2022/07/08 06:38:52;;;;;;;9.05;1.70;;;20.80;99.90;;;;;;6256854;28;20045;-83
2022/07/08 06:41:55;;;;;;;6.50;1.40;;;20.70;99.90;;;;;;6280038;28;20049;-83
2022/07/08 06:44:57;;;;;;;7.55;1.70;;;21.00;99.90;;;;;;6260692;28;20049;-82
2022/07/08 06:47:59;;;;;;;8.85;1.98;;;21.30;99.90;;;;;;6267400;28;20052;-82
2022/07/08 06:51:01;;;;;;;9.68;1.83;;;21.10;99.90;;;;;;6261715;28;20048;-83
2022/07/08 06:57:24;;;;;;;10.32;1.70;;;20.90;99.90;;;;;;6256598;28;20210;-82
2022/07/08 07:00:26;;;;;;;9.40;1.63;;;21.00;99.90;;;;;;6294846;28;20048;-84
2022/07/08 07:03:27;;;;;;;5.75;1.63;;;21.10;99.90;;;;;;6245376;28;20065;-83
2022/07/08 07:06:29;;;;;;;6.15;1.60;;;20.90;99.90;;;;;;6248869;28;20529;-82
2022/07/08 07:09:31;;;;;;;9.75;2.55;;;20.70;99.90;;;;;;6246535;28;20049;-82
2022/07/08 07:12:35;;;;;;;9.32;1.88;;;20.80;99.90;;;;;;6253649;28;20059;-82
2022/07/08 07:15:37;;;;;;;9.45;1.83;;;20.50;99.90;;;;;;6302726;28;20053;-82
2022/07/08 07:18:38;;;;;;;7.40;1.85;;;20.50;99.90;;;;;;6301317;28;20048;-83
2022/07/08 07:21:40;;;;;;;7.15;1.60;;;20.70;99.90;;;;;;6269267;28;20053;-80
2022/07/08 07:24:42;;;;;;;7.30;1.75;;;20.10;99.90;;;;;;6257605;28;20049;-83
2022/07/08 07:27:46;;;;;;;7.07;1.90;;;19.70;99.90;;;;;;6282557;28;20079;-83
2022/07/08 07:30:48;;;;;;;7.80;1.60;;;20.10;99.90;;;;;;6257024;28;20056;-83
2022/07/08 07:33:50;;;;;;;6.43;1.85;;;20.10;99.90;;;;;;6254067;28;20038;-83
2022/07/08 07:36:52;;;;;;;6.57;1.80;;;20.70;99.90;;;;;;6249973;28;20041;-83
2022/07/08 07:39:54;;;;;;;9.95;1.80;;;20.60;99.90;;;;;;6256506;28;20045;-83
2022/07/08 07:42:57;;;;;;;8.00;2.10;;;20.50;99.90;;;;;;6257400;28;20168;-83
2022/07/08 07:45:59;;;;;;;8.02;1.70;;;20.00;99.90;;;;;;6257351;28;20494;-83
2022/07/08 07:49:01;;;;;;;9.15;1.90;;;20.30;99.90;;;;;;6246303;28;20392;-82
2022/07/08 07:52:04;;;;;;;7.30;1.70;;;19.90;99.90;;;;;;6273096;28;20057;-83
2022/07/08 07:55:08;;;;;;;8.55;1.88;;;19.40;99.90;;;;;;6294726;28;20498;-83
2022/07/08 07:58:12;;;;;;;7.10;1.58;;;19.10;99.90;;;;;;6256972;28;20049;-83
2022/07/08 08:01:14;;;;;;;30.60;16.50;;;19.50;99.90;;;;;;6287962;28;20045;-84
2022/07/08 08:04:16;;;;;;;23.42;10.15;;;19.30;99.90;;;;;;6254797;28;20049;-83
2022/07/08 08:07:18;;;;;;;11.45;3.15;;;18.90;99.90;;;;;;6262122;28;20487;-85
2022/07/08 08:10:20;;;;;;;12.80;2.10;;;18.90;99.90;;;;;;6252955;28;20080;-83
2022/07/08 08:13:23;;;;;;;9.48;2.03;;;18.80;99.90;;;;;;6285101;28;20491;-83
2022/07/08 08:16:25;;;;;;;10.20;2.72;;;18.30;99.90;;;;;;6257024;28;20044;-84
2022/07/08 08:19:27;;;;;;;7.88;2.35;;;18.60;99.90;;;;;;6282014;28;20056;-85
2022/07/08 08:22:29;;;;;;;13.88;2.70;;;19.60;99.90;;;;;;6265667;28;20053;-83
2022/07/08 08:25:31;;;;;;;6.28;2.00;;;20.20;99.90;;;;;;6264988;28;20106;-83
2022/07/08 08:28:34;;;;;;;6.72;2.60;;;20.60;99.90;;;;;;6248567;28;20050;-83
2022/07/08 08:31:36;;;;;;;6.20;1.95;;;20.50;99.90;;;;;;6267209;28;20049;-84
2022/07/08 08:34:38;;;;;;;5.97;1.90;;;20.50;99.90;;;;;;6277095;28;20493;-84
2022/07/08 08:37:40;;;;;;;8.30;1.75;;;20.60;99.90;;;;;;6264885;28;20050;-83
2022/07/08 08:40:43;;;;;;;6.30;1.98;;;20.50;99.90;;;;;;6276777;28;20041;-84
2022/07/08 08:43:46;;;;;;;6.93;1.70;;;20.60;99.90;;;;;;6261783;28;20045;-83
2022/07/08 08:46:53;;;;;;;5.88;1.63;;;21.10;99.90;;;;;;6261550;28;20833;-84
2022/07/08 08:49:56;;;;;;;5.80;1.80;;;21.40;99.90;;;;;;6274263;28;20049;-83
2022/07/08 08:52:59;;;;;;;;;;;21.00;99.90;;;;;;6293154;28;20421;-83
2022/07/08 08:56:01;;;;;;;5.97;1.70;;;20.90;99.90;;;;;;6261326;28;20396;-83
2022/07/08 08:59:05;;;;;;;5.15;1.67;;;21.00;99.90;;;;;;6276747;28;20127;-83
2022/07/08 09:02:11;;;;;;;8.68;1.90;;;21.00;99.90;;;;;;6290258;28;20049;-84
2022/07/08 09:05:14;;;;;;;8.75;2.00;;;20.90;99.90;;;;;;6264938;28;20041;-83
2022/07/08 09:08:16;;;;;;;4.82;1.55;;;20.70;99.90;;;;;;6258637;28;20043;-83
2022/07/08 09:11:19;;;;;;;6.32;1.85;;;20.90;99.90;;;;;;6290053;28;20067;-83
2022/07/08 09:14:24;;;;;;;12.23;2.10;;;21.20;99.90;;;;;;6295812;28;20057;-83
2022/07/08 09:17:26;;;;;;;7.97;1.75;;;21.10;99.90;;;;;;6264932;28;20036;-82
2022/07/08 09:20:29;;;;;;;6.03;1.63;;;21.30;99.90;;;;;;6263845;28;20045;-83
2022/07/08 09:23:32;;;;;;;6.15;1.83;;;21.40;99.90;;;;;;6270186;28;20051;-83
2022/07/08 09:26:35;;;;;;;6.65;1.85;;;21.40;99.90;;;;;;6221310;28;1089334;-83
2022/07/08 09:29:40;;;;;;;7.70;2.20;;;21.60;99.90;;;;;;6265760;28;20049;-83
2022/07/08 09:32:58;;;;;;;5.05;2.10;;;21.80;99.90;;;;;;6287223;28;20465;-83
2022/07/08 09:36:01;;;;;;;4.60;1.50;;;21.80;99.90;;;;;;6274071;28;20111;-83
2022/07/08 09:39:07;;;;;;;4.72;1.42;;;21.70;99.90;;;;;;6280000;28;20107;-83
2022/07/08 09:42:10;;;;;;;4.75;1.40;;;21.70;99.90;;;;;;6272399;28;20048;-82
2022/07/08 09:45:13;;;;;;;8.63;2.60;;;21.50;99.90;;;;;;6268795;28;20053;-83
2022/07/08 09:48:15;;;;;;;5.78;1.80;;;21.60;99.90;;;;;;6278919;28;20048;-84
2022/07/08 09:51:18;;;;;;;5.00;1.55;;;21.70;99.90;;;;;;6285773;28;20129;-84
2022/07/08 09:54:21;;;;;;;6.95;1.88;;;21.80;99.90;;;;;;6247738;28;20049;-83
2022/07/08 09:57:25;;;;;;;;;;;21.80;99.90;;;;;;6247936;28;20049;-82
2022/07/08 10:00:28;;;;;;;3.70;1.55;;;21.80;99.90;;;;;;6246847;28;19921;-83
2022/07/08 10:03:30;;;;;;;6.55;1.77;;;21.60;99.90;;;;;;6261933;28;20129;-83
2022/07/08 10:06:32;;;;;;;5.90;1.92;;;21.60;99.90;;;;;;6268887;28;20494;-84
2022/07/08 10:09:35;;;;;;;6.10;1.52;;;21.80;99.90;;;;;;6247854;28;20045;-84
2022/07/08 10:12:37;;;;;;;6.30;2.08;;;21.80;99.90;;;;;;6279466;28;20135;-84
2022/07/08 10:15:41;;;;;;;5.72;1.70;;;21.70;99.90;;;;;;6262728;28;20597;-84
2022/07/08 10:18:47;;;;;;;7.30;2.05;;;21.60;99.90;;;;;;6247845;28;20088;-84
2022/07/08 10:21:52;;;;;;;7.70;2.33;;;21.80;99.90;;;;;;6271890;28;20048;-84
2022/07/08 10:24:54;;;;;;;6.68;2.20;;;21.60;99.90;;;;;;6304132;28;20057;-84
2022/07/08 10:28:08;;;;;;;5.65;2.08;;;21.60;99.90;;;;;;6270785;28;20059;-83
2022/07/08 10:31:30;;;;;;;9.43;2.42;;;21.40;99.90;;;;;;6269604;28;20494;-84
2022/07/08 10:34:33;;;;;;;4.53;1.55;;;21.80;99.90;;;;;;6264817;28;20514;-85
2022/07/08 10:37:47;;;;;;;5.45;2.05;;;22.10;99.90;;;;;;6263374;28;20053;-84
2022/07/08 10:40:49;;;;;;;;;;;22.30;99.90;;;;;;6272466;28;20055;-84
2022/07/08 10:43:53;;;;;;;6.32;1.40;;;22.10;99.90;;;;;;6271552;28;20364;-85
2022/07/08 10:46:56;;;;;;;6.47;2.05;;;22.20;99.90;;;;;;6271191;28;20410;-85
2022/07/08 10:50:06;;;;;;;7.60;2.50;;;22.50;99.90;;;;;;6246817;28;20041;-84
2022/07/08 10:53:08;;;;;;;6.90;1.85;;;22.50;99.90;;;;;;6254363;28;20053;-85
2022/07/08 10:56:10;;;;;;;6.97;2.13;;;22.50;99.90;;;;;;6261220;28;20049;-85
2022/07/08 10:59:18;;;;;;;9.13;2.60;;;22.60;99.90;;;;;;6268084;28;20045;-85
2022/07/08 11:02:23;;;;;;;6.95;1.85;;;22.60;99.90;;;;;;6258945;28;20045;-86
2022/07/08 11:05:35;;;;;;;6.10;2.00;;;22.70;99.90;;;;;;6269507;28;20053;-85
2022/07/08 11:08:37;;;;;;;8.60;2.17;;;22.80;99.90;;;;;;6270100;28;20045;-86
2022/07/08 11:11:41;;;;;;;7.13;2.10;;;22.70;99.90;;;;;;6261984;28;20056;-85
2022/07/08 11:14:44;;;;;;;5.43;1.60;;;22.70;99.90;;;;;;6266990;28;20128;-84
2022/07/08 11:17:49;;;;;;;6.22;2.15;;;22.60;99.90;;;;;;6267873;28;20045;-85
2022/07/08 11:20:53;;;;;;;9.98;1.92;;;22.70;99.90;;;;;;6270945;28;20053;-82
2022/07/08 11:23:56;;;;;;;5.40;1.90;;;22.50;99.90;;;;;;6265084;28;20045;-85
2022/07/08 11:26:59;;;;;;;6.00;2.10;;;22.60;99.90;;;;;;6263716;28;20057;-84
2022/07/08 11:30:03;;;;;;;4.87;1.90;;;22.50;99.90;;;;;;6246416;28;20041;-87
2022/07/08 11:33:06;;;;;;;6.72;1.60;;;22.80;99.90;;;;;;6287230;28;20052;-85
2022/07/08 11:36:16;;;;;;;5.57;1.70;;;22.90;99.90;;;;;;6260750;28;20057;-83
2022/07/08 11:39:18;;;;;;;5.40;2.15;;;22.70;99.90;;;;;;6269267;28;20502;-90
2022/07/08 11:42:21;;;;;;;5.22;2.00;;;22.90;99.90;;;;;;6280525;28;20048;-85
2022/07/08 11:45:23;;;;;;;6.93;2.15;;;23.00;99.90;;;;;;6257330;28;20050;-84
2022/07/08 11:48:36;;;;;;;6.30;1.88;;;22.90;99.90;;;;;;6275101;28;20666;-87
2022/07/08 11:51:38;;;;;;;5.75;1.80;;;23.00;99.90;;;;;;6274406;28;20049;-90
2022/07/08 11:54:40;;;;;;;6.75;1.80;;;23.10;99.90;;;;;;6282778;28;20049;-86
2022/07/08 11:57:43;;;;;;;7.00;2.13;;;23.00;99.90;;;;;;6264137;28;20045;-86
2022/07/08 12:00:45;;;;;;;7.22;2.15;;;23.10;99.90;;;;;;6269522;28;20049;-86
2022/07/08 12:03:48;;;;;;;6.53;2.03;;;22.90;99.90;;;;;;6256339;28;20605;-87
2022/07/08 12:06:53;;;;;;;3.58;1.58;;;22.70;99.90;;;;;;6294613;28;20075;-85
2022/07/08 12:09:57;;;;;;;3.65;1.58;;;22.90;99.90;;;;;;6273100;28;20048;-86
2022/07/08 12:12:58;;;;;;;5.25;1.40;;;23.00;99.90;;;;;;6267969;28;20053;-86
2022/07/08 12:16:00;;;;;;;5.57;1.70;;;23.20;99.90;;;;;;6262273;28;20045;-87
2022/07/08 12:19:05;;;;;;;6.10;1.88;;;23.30;99.90;;;;;;6260094;28;20131;-82
2022/07/08 12:22:08;;;;;;;4.28;1.45;;;23.30;99.90;;;;;;6261647;28;20068;-81
2022/07/08 12:25:10;;;;;;;4.72;1.45;;;23.20;99.90;;;;;;6296934;28;20047;-83
2022/07/08 12:28:12;;;;;;;4.10;1.63;;;23.10;99.90;;;;;;6273208;28;20057;-84
2022/07/08 12:31:32;;;;;;;5.32;1.90;;;23.20;99.90;;;;;;6273346;28;20049;-82
2022/07/08 12:34:36;;;;;;;6.20;1.90;;;23.00;99.90;;;;;;6277272;28;20084;-81
2022/07/08 12:37:39;;;;;;;3.75;1.77;;;23.00;99.90;;;;;;6309738;28;20052;-87
2022/07/08 12:40:42;;;;;;;7.25;1.92;;;22.70;99.90;;;;;;6299898;28;20048;-88
2022/07/08 12:43:45;;;;;;;7.78;1.90;;;22.90;99.90;;;;;;6297499;28;20049;-81
2022/07/08 12:46:47;;;;;;;5.93;1.92;;;23.10;99.90;;;;;;6286219;28;20075;-82
2022/07/08 12:49:57;;;;;;;4.95;1.70;;;23.30;99.90;;;;;;6248843;28;20045;-84
2022/07/08 12:52:59;;;;;;;10.63;2.28;;;23.40;99.90;;;;;;6254396;28;20084;-80
2022/07/08 12:56:01;;;;;;;4.35;1.63;;;23.30;99.90;;;;;;6272229;28;20515;-82
2022/07/08 12:59:03;;;;;;;4.95;1.40;;;23.30;99.90;;;;;;6271818;28;20057;-84
2022/07/08 13:02:05;;;;;;;5.07;1.63;;;23.30;99.90;;;;;;6261117;28;20049;-81
2022/07/08 13:05:09;;;;;;;6.53;1.92;;;23.40;99.90;;;;;;6259535;28;20053;-80
2022/07/08 13:08:11;;;;;;;6.28;1.95;;;23.50;99.90;;;;;;6265998;28;20080;-79
2022/07/08 13:11:13;;;;;;;4.20;1.42;;;23.50;99.90;;;;;;6281397;28;20052;-76
2022/07/08 13:14:15;;;;;;;14.77;2.00;;;23.50;99.90;;;;;;6289363;28;20496;-78
2022/07/08 13:17:17;;;;;;;7.32;2.35;;;23.40;99.90;;;;;;6267694;28;20048;-77
2022/07/08 13:20:20;;;;;;;8.18;1.83;;;23.20;99.90;;;;;;6270977;28;20048;-78
2022/07/08 13:23:22;;;;;;;;;;;23.10;99.90;;;;;;6263572;28;20052;-79
2022/07/08 13:26:25;;;;;;;5.18;1.88;;;23.00;99.90;;;;;;6258329;28;20408;-78
2022/07/08 13:29:27;;;;;;;7.07;1.85;;;23.00;99.90;;;;;;6264080;28;20049;-80
2022/07/08 13:32:29;;;;;;;5.55;1.83;;;23.10;99.90;;;;;;6271753;28;20055;-80
2022/07/08 13:35:32;;;;;;;3.35;1.70;;;23.20;99.90;;;;;;6270084;28;20053;-79
2022/07/08 13:38:34;;;;;;;6.60;2.15;;;23.20;99.90;;;;;;6299733;28;20367;-76
2022/07/08 13:41:36;;;;;;;7.55;2.10;;;23.30;99.90;;;;;;6262885;28;20072;-76
2022/07/08 13:44:38;;;;;;;4.28;1.88;;;23.30;99.90;;;;;;6265856;28;20056;-75
2022/07/08 13:47:40;;;;;;;7.28;2.38;;;23.30;99.90;;;;;;6293884;28;20045;-77
2022/07/08 13:50:44;;;;;;;5.25;1.52;;;23.10;99.90;;;;;;6267121;28;20053;-78
2022/07/08 13:53:46;;;;;;;6.35;2.30;;;23.00;99.90;;;;;;6258128;28;20175;-78
2022/07/08 13:56:48;;;;;;;5.88;2.13;;;23.00;99.90;;;;;;6255676;28;20179;-76
2022/07/08 13:59:50;;;;;;;6.50;1.90;;;23.00;99.90;;;;;;6263914;28;20056;-76
2022/07/08 14:02:53;;;;;;;7.30;2.47;;;23.00;99.90;;;;;;6260588;28;20049;-76
2022/07/08 14:05:56;;;;;;;9.77;2.40;;;22.90;99.90;;;;;;6266218;28;20049;-84
2022/07/08 14:08:58;;;;;;;5.20;2.10;;;22.90;99.90;;;;;;6280460;28;20053;-77
2022/07/08 14:12:00;;;;;;;4.22;1.67;;;23.00;99.90;;;;;;6275925;28;20086;-77
2022/07/08 14:15:02;;;;;;;5.40;2.08;;;23.20;99.90;;;;;;6268018;28;20058;-77
2022/07/08 14:18:04;;;;;;;8.77;2.13;;;23.30;99.90;;;;;;6290827;28;20092;-78
2022/07/08 14:21:08;;;;;;;8.40;2.33;;;23.30;99.90;;;;;;6269734;28;20497;-76
2022/07/08 14:24:10;;;;;;;7.50;2.67;;;23.30;99.90;;;;;;6295304;28;20044;-76
2022/07/08 14:27:12;;;;;;;9.00;2.20;;;23.30;99.90;;;;;;6269795;28;20061;-75
2022/07/08 14:30:14;;;;;;;6.40;2.05;;;23.30;99.90;;;;;;6282128;28;20084;-76
2022/07/08 14:33:16;;;;;;;10.73;3.92;;;23.00;99.90;;;;;;6246543;28;20136;-76
2022/07/08 14:36:19;;;;;;;4.88;1.80;;;23.00;99.90;;;;;;6249601;28;20046;-77
2022/07/08 14:39:21;;;;;;;7.25;1.95;;;22.90;99.90;;;;;;6297450;28;20433;-78
2022/07/08 14:42:23;;;;;;;7.80;2.20;;;22.90;99.90;;;;;;6265961;28;20056;-76
2022/07/08 14:45:25;;;;;;;9.50;2.42;;;22.90;99.90;;;;;;6268959;28;20055;-78
2022/07/08 14:48:27;;;;;;;11.13;2.25;;;22.70;99.90;;;;;;6268819;28;20080;-76
2022/07/08 14:51:30;;;;;;;8.98;3.38;;;22.70;99.90;;;;;;6294215;28;20053;-79
2022/07/08 14:54:32;;;;;;;7.35;2.65;;;22.70;99.90;;;;;;6252755;28;20429;-75
2022/07/08 14:57:34;;;;;;;7.30;1.83;;;22.70;99.90;;;;;;6269668;28;20056;-76
2022/07/08 15:00:36;;;;;;;9.32;3.20;;;22.90;99.90;;;;;;6268101;28;20048;-74
2022/07/08 15:03:38;;;;;;;4.88;2.03;;;23.10;99.90;;;;;;6267566;28;20422;-77
2022/07/08 15:06:42;;;;;;;9.13;2.38;;;23.20;99.90;;;;;;6268658;28;20049;-76
2022/07/08 15:09:44;;;;;;;;;;;23.40;99.90;;;;;;6262573;28;20060;-76
2022/07/08 15:12:45;;;;;;;6.88;2.05;;;23.50;99.90;;;;;;6302382;28;19928;-75
2022/07/08 15:15:48;;;;;;;9.00;2.17;;;23.20;99.90;;;;;;6259240;28;20514;-74
2022/07/08 15:18:49;;;;;;;9.02;2.47;;;23.10;99.90;;;;;;6260919;28;20239;-75
2022/07/08 15:21:53;;;;;;;9.07;2.30;;;22.90;99.90;;;;;;6291011;28;20056;-75
2022/07/08 15:24:55;;;;;;;11.43;3.78;;;22.80;99.90;;;;;;6295143;28;20049;-75
2022/07/08 15:27:57;;;;;;;6.57;2.10;;;23.00;99.90;;;;;;6294729;28;20064;-75
2022/07/08 15:30:59;;;;;;;13.73;3.53;;;23.10;99.90;;;;;;6295291;28;20057;-74
2022/07/08 15:34:00;;;;;;;8.52;2.58;;;23.20;99.90;;;;;;6296466;28;20098;-76
2022/07/08 15:37:04;;;;;;;8.88;2.67;;;23.30;99.90;;;;;;6249657;28;20569;-76
2022/07/08 15:40:07;;;;;;;8.80;3.03;;;23.20;99.90;;;;;;6246461;28;20096;-73
2022/07/08 15:43:09;;;;;;;8.55;2.33;;;23.10;99.90;;;;;;6278955;28;20411;-74
2022/07/08 15:46:11;;;;;;;7.93;3.30;;;22.80;99.90;;;;;;6302757;28;20037;-74
2022/07/08 15:49:13;;;;;;;8.20;2.30;;;22.50;99.90;;;;;;6273772;28;20046;-75
2022/07/08 15:52:17;;;;;;;5.85;2.63;;;22.40;99.90;;;;;;6246442;28;20042;-75
2022/07/08 15:55:19;;;;;;;6.03;2.95;;;22.30;99.90;;;;;;6246605;28;20057;-74
2022/07/08 15:58:21;;;;;;;10.70;2.83;;;22.30;99.90;;;;;;6246374;28;20175;-75